sensor_id;sensor_type;location;lat;lon;timestamp;temperature;humidity
33476;DHT22;19814;48.224;11.422;2023-03-31T00:01:11;8.00;99.90
33476;DHT22;19814;48.224;11.422;2023-03-31T00:03:37;7.90;99.90
33476;DHT22;19814;48.224;11.422;2023-03-31T00:06:09;7.80;99.90
33476;DHT22;19814;48.224;11.422;2023-03-31T00:08:36;7.80;99.90
33476;DHT22;19814;48.224;11.422;2023-03-31T00:11:05;7.80;99.90
33476;DHT22;19814;48.224;11.422;2023-03-31T00:13:35;7.80;99.90
33476;DHT22;19814;48.224;11.422;2023-03-31T00:16:03;7.90;99.90
33476;DHT22;19814;48.224;11.422;2023-03-31T00:18:29;7.90;99.90
33476;DHT22;19814;48.224;11.422;2023-03-31T00:21:05;7.90;99.90
33476;DHT22;19814;48.224;11.422;2023-03-31T00:23:31;8.00;99.90
33476;DHT22;19814;48.224;11.422;2023-03-31T00:25:56;8.00;99.90
33476;DHT22;19814;48.224;11.422;2023-03-31T00:28:22;8.00;99.90
33476;DHT22;19814;48.224;11.422;2023-03-31T00:30:48;8.00;99.90
33476;DHT22;19814;48.224;11.422;2023-03-31T00:33:14;8.00;99.90
33476;DHT22;19814;48.224;11.422;2023-03-31T00:35:39;8.00;99.90
33476;DHT22;19814;48.224;11.422;2023-03-31T00:38:05;8.00;99.90
33476;DHT22;19814;48.224;11.422;2023-03-31T00:40:34;8.00;99.90
33476;DHT22;19814;48.224;11.422;2023-03-31T00:43:00;8.10;99.90
33476;DHT22;19814;48.224;11.422;2023-03-31T00:45:29;8.10;99.90
33476;DHT22;19814;48.224;11.422;2023-03-31T00:48:10;8.10;99.90
33476;DHT22;19814;48.224;11.422;2023-03-31T00:50:54;8.20;99.90
33476;DHT22;19814;48.224;11.422;2023-03-31T00:53:23;8.20;99.90
33476;DHT22;19814;48.224;11.422;2023-03-31T00:55:53;8.20;99.90
33476;DHT22;19814;48.224;11.422;2023-03-31T00:58:20;8.30;99.90
33476;DHT22;19814;48.224;11.422;2023-03-31T01:00:54;8.30;99.90
33476;DHT22;19814;48.224;11.422;2023-03-31T01:03:20;8.40;99.90
33476;DHT22;19814;48.224;11.422;2023-03-31T01:05:53;8.40;99.90
33476;DHT22;19814;48.224;11.422;2023-03-31T01:08:22;8.40;99.90
33476;DHT22;19814;48.224;11.422;2023-03-31T01:10:53;8.40;99.90
33476;DHT22;19814;48.224;11.422;2023-03-31T01:13:19;8.40;99.90
33476;DHT22;19814;48.224;11.422;2023-03-31T01:15:46;8.40;99.90
33476;DHT22;19814;48.224;11.422;2023-03-31T01:18:12;8.40;99.90
33476;DHT22;19814;48.224;11.422;2023-03-31T01:23:18;8.40;99.90
33476;DHT22;19814;48.224;11.422;2023-03-31T01:34:15;8.30;99.90
33476;DHT22;19814;48.224;11.422;2023-03-31T01:42:43;8.40;99.90
33476;DHT22;19814;48.224;11.422;2023-03-31T01:51:38;8.60;99.90
33476;DHT22;19814;48.224;11.422;2023-03-31T01:56:51;8.70;99.90
33476;DHT22;19814;48.224;11.422;2023-03-31T01:59:24;8.70;99.90
33476;DHT22;19814;48.224;11.422;2023-03-31T02:01:56;8.70;99.90
33476;DHT22;19814;48.224;11.422;2023-03-31T02:04:28;8.80;99.90
33476;DHT22;19814;48.224;11.422;2023-03-31T02:07:06;8.80;99.90
33476;DHT22;19814;48.224;11.422;2023-03-31T02:09:40;8.90;99.90
33476;DHT22;19814;48.224;11.422;2023-03-31T02:12:08;8.80;99.90
33476;DHT22;19814;48.224;11.422;2023-03-31T02:14:38;8.80;99.90
33476;DHT22;19814;48.224;11.422;2023-03-31T02:17:06;8.80;99.90
33476;DHT22;19814;48.224;11.422;2023-03-31T02:19:38;8.80;99.90
33476;DHT22;19814;48.224;11.422;2023-03-31T02:22:07;8.90;99.90
33476;DHT22;19814;48.224;11.422;2023-03-31T02:24:35;8.90;99.90
33476;DHT22;19814;48.224;11.422;2023-03-31T02:27:30;8.90;99.90
33476;DHT22;19814;48.224;11.422;2023-03-31T02:29:58;8.90;99.90
33476;DHT22;19814;48.224;11.422;2023-03-31T02:35:01;9.00;99.90
33476;DHT22;19814;48.224;11.422;2023-03-31T02:37:27;8.90;99.90
33476;DHT22;19814;48.224;11.422;2023-03-31T02:39:55;8.90;99.90
33476;DHT22;19814;48.224;11.422;2023-03-31T02:42:22;8.90;99.90
33476;DHT22;19814;48.224;11.422;2023-03-31T02:44:48;8.90;99.90
33476;DHT22;19814;48.224;11.422;2023-03-31T02:47:16;8.90;99.90
33476;DHT22;19814;48.224;11.422;2023-03-31T02:49:48;8.80;99.90
33476;DHT22;19814;48.224;11.422;2023-03-31T02:52:48;8.80;99.90
33476;DHT22;19814;48.224;11.422;2023-03-31T03:00:43;8.70;99.90
33476;DHT22;19814;48.224;11.422;2023-03-31T03:06:17;8.80;99.90
33476;DHT22;19814;48.224;11.422;2023-03-31T03:09:12;8.90;99.90
33476;DHT22;19814;48.224;11.422;2023-03-31T03:17:08;9.10;99.90
33476;DHT22;19814;48.224;11.422;2023-03-31T03:19:36;9.10;99.90
33476;DHT22;19814;48.224;11.422;2023-03-31T03:22:01;9.20;99.90
33476;DHT22;19814;48.224;11.422;2023-03-31T03:24:27;9.20;99.90
33476;DHT22;19814;48.224;11.422;2023-03-31T03:26:54;9.30;99.90
33476;DHT22;19814;48.224;11.422;2023-03-31T03:29:19;9.20;99.90
33476;DHT22;19814;48.224;11.422;2023-03-31T03:31:45;9.20;99.90
33476;DHT22;19814;48.224;11.422;2023-03-31T03:34:11;9.20;99.90
33476;DHT22;19814;48.224;11.422;2023-03-31T03:36:37;9.20;99.90
33476;DHT22;19814;48.224;11.422;2023-03-31T03:39:04;9.20;99.90
33476;DHT22;19814;48.224;11.422;2023-03-31T03:41:31;9.30;99.90
33476;DHT22;19814;48.224;11.422;2023-03-31T03:43:58;9.30;99.90
33476;DHT22;19814;48.224;11.422;2023-03-31T03:46:23;9.30;99.90
33476;DHT22;19814;48.224;11.422;2023-03-31T03:48:49;9.30;99.90
33476;DHT22;19814;48.224;11.422;2023-03-31T03:51:14;9.30;99.90
33476;DHT22;19814;48.224;11.422;2023-03-31T03:53:40;9.20;99.90
33476;DHT22;19814;48.224;11.422;2023-03-31T03:56:06;9.20;99.90
33476;DHT22;19814;48.224;11.422;2023-03-31T03:58:31;9.20;99.90
33476;DHT22;19814;48.224;11.422;2023-03-31T04:00:57;9.20;99.90
33476;DHT22;19814;48.224;11.422;2023-03-31T04:03:23;9.20;99.90
33476;DHT22;19814;48.224;11.422;2023-03-31T04:05:48;9.10;99.90
33476;DHT22;19814;48.224;11.422;2023-03-31T04:08:15;9.10;99.90
33476;DHT22;19814;48.224;11.422;2023-03-31T04:10:44;9.00;99.90
33476;DHT22;19814;48.224;11.422;2023-03-31T04:13:10;8.90;99.90
33476;DHT22;19814;48.224;11.422;2023-03-31T04:15:36;8.90;99.90
33476;DHT22;19814;48.224;11.422;2023-03-31T04:18:01;8.90;99.90
33476;DHT22;19814;48.224;11.422;2023-03-31T04:20:27;8.90;99.90
33476;DHT22;19814;48.224;11.422;2023-03-31T04:22:55;8.90;99.90
33476;DHT22;19814;48.224;11.422;2023-03-31T04:25:20;8.90;99.90
33476;DHT22;19814;48.224;11.422;2023-03-31T04:27:48;8.90;99.90
33476;DHT22;19814;48.224;11.422;2023-03-31T04:30:21;8.80;99.90
33476;DHT22;19814;48.224;11.422;2023-03-31T04:32:52;8.70;99.90
33476;DHT22;19814;48.224;11.422;2023-03-31T04:35:20;8.70;99.90
33476;DHT22;19814;48.224;11.422;2023-03-31T04:37:50;8.60;99.90
33476;DHT22;19814;48.224;11.422;2023-03-31T04:40:17;8.60;99.90
33476;DHT22;19814;48.224;11.422;2023-03-31T04:42:43;8.50;99.90
33476;DHT22;19814;48.224;11.422;2023-03-31T04:45:10;8.50;99.90
33476;DHT22;19814;48.224;11.422;2023-03-31T04:47:35;8.50;99.90
33476;DHT22;19814;48.224;11.422;2023-03-31T04:50:01;8.50;99.90
33476;DHT22;19814;48.224;11.422;2023-03-31T04:52:27;8.40;99.90
33476;DHT22;19814;48.224;11.422;2023-03-31T04:54:52;8.50;99.90
33476;DHT22;19814;48.224;11.422;2023-03-31T04:57:18;8.50;99.90
33476;DHT22;19814;48.224;11.422;2023-03-31T04:59:44;8.40;99.90
33476;DHT22;19814;48.224;11.422;2023-03-31T05:02:10;8.40;99.90
33476;DHT22;19814;48.224;11.422;2023-03-31T05:04:35;8.40;99.90
33476;DHT22;19814;48.224;11.422;2023-03-31T05:07:02;8.30;99.90
33476;DHT22;19814;48.224;11.422;2023-03-31T05:09:27;8.20;99.90
33476;DHT22;19814;48.224;11.422;2023-03-31T05:11:53;8.20;99.90
33476;DHT22;19814;48.224;11.422;2023-03-31T05:14:18;8.20;99.90
33476;DHT22;19814;48.224;11.422;2023-03-31T05:16:45;8.20;99.90
33476;DHT22;19814;48.224;11.422;2023-03-31T05:19:10;8.20;99.90
33476;DHT22;19814;48.224;11.422;2023-03-31T05:21:36;8.20;99.90
33476;DHT22;19814;48.224;11.422;2023-03-31T05:24:02;8.20;99.90
33476;DHT22;19814;48.224;11.422;2023-03-31T05:26:29;8.30;99.90
33476;DHT22;19814;48.224;11.422;2023-03-31T05:28:54;8.30;99.90
33476;DHT22;19814;48.224;11.422;2023-03-31T05:31:20;8.30;99.90
33476;DHT22;19814;48.224;11.422;2023-03-31T05:33:46;8.30;99.90
33476;DHT22;19814;48.224;11.422;2023-03-31T05:36:15;8.30;99.90
33476;DHT22;19814;48.224;11.422;2023-03-31T05:38:41;8.30;99.90
33476;DHT22;19814;48.224;11.422;2023-03-31T05:41:07;8.30;99.90
33476;DHT22;19814;48.224;11.422;2023-03-31T05:43:34;8.30;99.90
33476;DHT22;19814;48.224;11.422;2023-03-31T05:46:00;8.30;99.90
33476;DHT22;19814;48.224;11.422;2023-03-31T05:48:25;8.20;99.90
33476;DHT22;19814;48.224;11.422;2023-03-31T05:50:55;8.30;99.90
33476;DHT22;19814;48.224;11.422;2023-03-31T05:53:21;8.30;99.90
33476;DHT22;19814;48.224;11.422;2023-03-31T05:55:46;8.40;99.90
33476;DHT22;19814;48.224;11.422;2023-03-31T05:58:12;8.40;99.90
33476;DHT22;19814;48.224;11.422;2023-03-31T06:00:37;8.40;99.90
33476;DHT22;19814;48.224;11.422;2023-03-31T06:03:03;8.40;99.90
33476;DHT22;19814;48.224;11.422;2023-03-31T06:05:32;8.50;99.90
33476;DHT22;19814;48.224;11.422;2023-03-31T06:07:57;8.60;99.90
33476;DHT22;19814;48.224;11.422;2023-03-31T06:10:23;8.60;99.90
33476;DHT22;19814;48.224;11.422;2023-03-31T06:12:48;8.70;99.90
33476;DHT22;19814;48.224;11.422;2023-03-31T06:15:14;8.70;99.90
33476;DHT22;19814;48.224;11.422;2023-03-31T06:17:40;8.70;99.90
33476;DHT22;19814;48.224;11.422;2023-03-31T06:20:06;8.60;99.90
33476;DHT22;19814;48.224;11.422;2023-03-31T06:22:31;8.60;99.90
33476;DHT22;19814;48.224;11.422;2023-03-31T06:24:57;8.60;99.90
33476;DHT22;19814;48.224;11.422;2023-03-31T06:27:22;8.70;99.90
33476;DHT22;19814;48.224;11.422;2023-03-31T06:29:48;8.70;99.90
33476;DHT22;19814;48.224;11.422;2023-03-31T06:32:14;8.80;99.90
33476;DHT22;19814;48.224;11.422;2023-03-31T06:34:40;8.80;99.90
33476;DHT22;19814;48.224;11.422;2023-03-31T06:37:05;8.90;99.90
33476;DHT22;19814;48.224;11.422;2023-03-31T06:39:31;8.90;99.90
33476;DHT22;19814;48.224;11.422;2023-03-31T06:41:56;8.90;99.90
33476;DHT22;19814;48.224;11.422;2023-03-31T06:44:22;8.90;99.90
33476;DHT22;19814;48.224;11.422;2023-03-31T06:46:48;9.00;99.90
33476;DHT22;19814;48.224;11.422;2023-03-31T06:49:14;9.00;99.90
33476;DHT22;19814;48.224;11.422;2023-03-31T06:51:40;9.10;99.90
33476;DHT22;19814;48.224;11.422;2023-03-31T06:54:05;9.00;99.90
33476;DHT22;19814;48.224;11.422;2023-03-31T06:56:31;9.10;99.90
33476;DHT22;19814;48.224;11.422;2023-03-31T06:58:56;9.20;99.90
33476;DHT22;19814;48.224;11.422;2023-03-31T07:01:22;9.30;99.90
33476;DHT22;19814;48.224;11.422;2023-03-31T07:03:47;9.40;99.90
33476;DHT22;19814;48.224;11.422;2023-03-31T07:06:13;9.40;99.90
33476;DHT22;19814;48.224;11.422;2023-03-31T07:08:38;9.60;99.90
33476;DHT22;19814;48.224;11.422;2023-03-31T07:11:04;9.50;99.90
33476;DHT22;19814;48.224;11.422;2023-03-31T07:13:30;9.40;99.90
33476;DHT22;19814;48.224;11.422;2023-03-31T07:15:56;9.40;99.90
33476;DHT22;19814;48.224;11.422;2023-03-31T07:18:22;9.40;99.90
33476;DHT22;19814;48.224;11.422;2023-03-31T07:20:50;9.30;99.90
33476;DHT22;19814;48.224;11.422;2023-03-31T07:23:16;9.40;99.90
33476;DHT22;19814;48.224;11.422;2023-03-31T07:25:42;9.30;99.90
33476;DHT22;19814;48.224;11.422;2023-03-31T07:28:07;9.40;99.90
33476;DHT22;19814;48.224;11.422;2023-03-31T07:30:33;9.30;99.90
33476;DHT22;19814;48.224;11.422;2023-03-31T07:32:59;9.30;99.90
33476;DHT22;19814;48.224;11.422;2023-03-31T07:35:24;9.30;99.90
33476;DHT22;19814;48.224;11.422;2023-03-31T07:37:51;9.30;99.90
33476;DHT22;19814;48.224;11.422;2023-03-31T07:40:23;9.30;99.90
33476;DHT22;19814;48.224;11.422;2023-03-31T07:42:49;9.30;99.90
33476;DHT22;19814;48.224;11.422;2023-03-31T07:45:17;9.30;99.90
33476;DHT22;19814;48.224;11.422;2023-03-31T07:47:43;9.20;99.90
33476;DHT22;19814;48.224;11.422;2023-03-31T07:50:10;9.30;99.90
33476;DHT22;19814;48.224;11.422;2023-03-31T07:52:36;9.30;99.90
33476;DHT22;19814;48.224;11.422;2023-03-31T07:55:03;9.30;99.90
33476;DHT22;19814;48.224;11.422;2023-03-31T07:57:29;9.20;99.90
33476;DHT22;19814;48.224;11.422;2023-03-31T07:59:54;9.10;99.90
33476;DHT22;19814;48.224;11.422;2023-03-31T08:02:20;9.10;99.90
33476;DHT22;19814;48.224;11.422;2023-03-31T08:04:46;9.10;99.90
33476;DHT22;19814;48.224;11.422;2023-03-31T08:07:13;9.20;99.90
33476;DHT22;19814;48.224;11.422;2023-03-31T08:09:40;9.30;99.90
33476;DHT22;19814;48.224;11.422;2023-03-31T08:12:07;9.60;99.90
33476;DHT22;19814;48.224;11.422;2023-03-31T08:14:32;9.90;99.90
33476;DHT22;19814;48.224;11.422;2023-03-31T08:16:58;10.10;99.90
33476;DHT22;19814;48.224;11.422;2023-03-31T08:19:25;10.10;99.90
33476;DHT22;19814;48.224;11.422;2023-03-31T08:21:50;9.90;99.90
33476;DHT22;19814;48.224;11.422;2023-03-31T08:24:17;9.80;99.90
33476;DHT22;19814;48.224;11.422;2023-03-31T08:26:43;9.90;99.90
33476;DHT22;19814;48.224;11.422;2023-03-31T08:29:08;9.90;99.90
33476;DHT22;19814;48.224;11.422;2023-03-31T08:31:34;9.90;99.90
33476;DHT22;19814;48.224;11.422;2023-03-31T08:34:00;9.80;99.90
33476;DHT22;19814;48.224;11.422;2023-03-31T08:36:27;9.80;99.90
33476;DHT22;19814;48.224;11.422;2023-03-31T08:38:52;9.80;99.90
33476;DHT22;19814;48.224;11.422;2023-03-31T08:41:46;9.90;99.90
33476;DHT22;19814;48.224;11.422;2023-03-31T08:44:21;10.00;99.90
33476;DHT22;19814;48.224;11.422;2023-03-31T08:46:52;10.20;99.90
33476;DHT22;19814;48.224;11.422;2023-03-31T08:49:20;10.30;99.90
33476;DHT22;19814;48.224;11.422;2023-03-31T08:51:47;10.40;99.90
33476;DHT22;19814;48.224;11.422;2023-03-31T08:54:24;10.50;99.90
33476;DHT22;19814;48.224;11.422;2023-03-31T08:56:52;10.70;99.90
33476;DHT22;19814;48.224;11.422;2023-03-31T08:59:32;10.80;99.90
33476;DHT22;19814;48.224;11.422;2023-03-31T09:10:33;11.40;99.90
33476;DHT22;19814;48.224;11.422;2023-03-31T09:15:55;11.50;99.90
33476;DHT22;19814;48.224;11.422;2023-03-31T09:18:33;11.60;99.90
33476;DHT22;19814;48.224;11.422;2023-03-31T09:21:37;11.80;99.90
33476;DHT22;19814;48.224;11.422;2023-03-31T09:24:13;12.10;99.90
33476;DHT22;19814;48.224;11.422;2023-03-31T09:26:44;12.70;99.90
33476;DHT22;19814;48.224;11.422;2023-03-31T09:29:18;14.70;99.90
33476;DHT22;19814;48.224;11.422;2023-03-31T09:31:45;16.80;98.70
33476;DHT22;19814;48.224;11.422;2023-03-31T09:34:32;17.80;96.30
33476;DHT22;19814;48.224;11.422;2023-03-31T09:36:58;17.90;95.90
33476;DHT22;19814;48.224;11.422;2023-03-31T09:39:24;17.10;95.70
33476;DHT22;19814;48.224;11.422;2023-03-31T09:41:51;16.70;95.70
33476;DHT22;19814;48.224;11.422;2023-03-31T09:44:27;17.10;96.00
33476;DHT22;19814;48.224;11.422;2023-03-31T09:46:58;18.10;94.50
33476;DHT22;19814;48.224;11.422;2023-03-31T09:49:27;19.40;94.60
33476;DHT22;19814;48.224;11.422;2023-03-31T09:52:22;20.40;90.90
33476;DHT22;19814;48.224;11.422;2023-03-31T09:54:52;21.30;90.00
33476;DHT22;19814;48.224;11.422;2023-03-31T09:57:33;21.30;87.10
33476;DHT22;19814;48.224;11.422;2023-03-31T10:00:13;20.40;86.50
33476;DHT22;19814;48.224;11.422;2023-03-31T10:05:55;19.30;90.90
33476;DHT22;19814;48.224;11.422;2023-03-31T10:08:25;20.50;86.30
33476;DHT22;19814;48.224;11.422;2023-03-31T10:11:09;21.90;84.70
33476;DHT22;19814;48.224;11.422;2023-03-31T10:13:58;23.10;75.80
33476;DHT22;19814;48.224;11.422;2023-03-31T10:16:49;23.40;75.00
33476;DHT22;19814;48.224;11.422;2023-03-31T10:19:27;24.00;73.70
33476;DHT22;19814;48.224;11.422;2023-03-31T10:24:22;25.20;68.30
33476;DHT22;19814;48.224;11.422;2023-03-31T10:26:51;26.10;61.90
33476;DHT22;19814;48.224;11.422;2023-03-31T10:29:30;25.70;62.90
33476;DHT22;19814;48.224;11.422;2023-03-31T10:34:41;24.80;64.30
33476;DHT22;19814;48.224;11.422;2023-03-31T10:37:18;24.90;64.10
33476;DHT22;19814;48.224;11.422;2023-03-31T10:39:47;24.80;64.50
33476;DHT22;19814;48.224;11.422;2023-03-31T10:42:22;23.40;66.80
33476;DHT22;19814;48.224;11.422;2023-03-31T10:44:49;22.10;67.30
33476;DHT22;19814;48.224;11.422;2023-03-31T10:47:17;20.80;71.10
33476;DHT22;19814;48.224;11.422;2023-03-31T10:49:43;19.40;74.20
33476;DHT22;19814;48.224;11.422;2023-03-31T10:52:19;19.70;77.20
33476;DHT22;19814;48.224;11.422;2023-03-31T10:54:46;21.00;73.30
33476;DHT22;19814;48.224;11.422;2023-03-31T10:57:13;20.80;71.90
33476;DHT22;19814;48.224;11.422;2023-03-31T11:00:01;20.00;72.30
33476;DHT22;19814;48.224;11.422;2023-03-31T11:02:43;20.70;72.40
33476;DHT22;19814;48.224;11.422;2023-03-31T11:27:06;14.80;93.60
33476;DHT22;19814;48.224;11.422;2023-03-31T11:32:44;14.10;93.10
33476;DHT22;19814;48.224;11.422;2023-03-31T11:43:15;15.60;90.40
33476;DHT22;19814;48.224;11.422;2023-03-31T11:45:52;16.90;90.70
33476;DHT22;19814;48.224;11.422;2023-03-31T11:48:39;17.60;83.70
33476;DHT22;19814;48.224;11.422;2023-03-31T11:51:13;18.00;78.80
33476;DHT22;19814;48.224;11.422;2023-03-31T11:53:42;17.90;78.70
33476;DHT22;19814;48.224;11.422;2023-03-31T11:56:11;17.90;79.40
33476;DHT22;19814;48.224;11.422;2023-03-31T11:58:41;18.50;79.10
33476;DHT22;19814;48.224;11.422;2023-03-31T12:01:25;19.60;73.50
33476;DHT22;19814;48.224;11.422;2023-03-31T12:06:43;21.40;69.30
33476;DHT22;19814;48.224;11.422;2023-03-31T12:09:34;21.00;68.70
33476;DHT22;19814;48.224;11.422;2023-03-31T12:12:21;19.80;69.70
33476;DHT22;19814;48.224;11.422;2023-03-31T12:14:52;19.00;71.30
33476;DHT22;19814;48.224;11.422;2023-03-31T12:17:25;18.40;71.40
33476;DHT22;19814;48.224;11.422;2023-03-31T12:20:00;17.80;73.80
33476;DHT22;19814;48.224;11.422;2023-03-31T12:22:38;17.30;76.60
33476;DHT22;19814;48.224;11.422;2023-03-31T12:25:04;17.30;76.50
33476;DHT22;19814;48.224;11.422;2023-03-31T12:27:38;18.30;76.80
33476;DHT22;19814;48.224;11.422;2023-03-31T12:32:44;21.20;65.10
33476;DHT22;19814;48.224;11.422;2023-03-31T12:46:49;18.30;70.40
33476;DHT22;19814;48.224;11.422;2023-03-31T13:04:37;16.20;79.60
33476;DHT22;19814;48.224;11.422;2023-03-31T13:07:04;15.90;80.90
33476;DHT22;19814;48.224;11.422;2023-03-31T13:09:39;15.50;79.90
33476;DHT22;19814;48.224;11.422;2023-03-31T13:12:08;15.20;81.90
33476;DHT22;19814;48.224;11.422;2023-03-31T13:14:38;14.90;81.80
33476;DHT22;19814;48.224;11.422;2023-03-31T13:19:42;14.70;76.50
33476;DHT22;19814;48.224;11.422;2023-03-31T13:22:36;14.40;76.80
33476;DHT22;19814;48.224;11.422;2023-03-31T13:27:57;14.50;79.70
33476;DHT22;19814;48.224;11.422;2023-03-31T13:33:11;15.30;79.20
33476;DHT22;19814;48.224;11.422;2023-03-31T13:35:39;15.50;76.20
33476;DHT22;19814;48.224;11.422;2023-03-31T13:38:29;15.60;73.80
33476;DHT22;19814;48.224;11.422;2023-03-31T14:03:46;13.80;90.40
33476;DHT22;19814;48.224;11.422;2023-03-31T14:06:22;13.70;90.50
33476;DHT22;19814;48.224;11.422;2023-03-31T14:08:53;13.80;90.90
33476;DHT22;19814;48.224;11.422;2023-03-31T14:11:22;13.70;89.80
33476;DHT22;19814;48.224;11.422;2023-03-31T14:13:58;13.60;91.20
33476;DHT22;19814;48.224;11.422;2023-03-31T14:16:25;13.60;91.00
33476;DHT22;19814;48.224;11.422;2023-03-31T14:18:57;13.70;90.60
33476;DHT22;19814;48.224;11.422;2023-03-31T14:21:33;13.70;90.50
33476;DHT22;19814;48.224;11.422;2023-03-31T14:24:25;13.80;91.70
33476;DHT22;19814;48.224;11.422;2023-03-31T14:27:04;13.80;91.60
33476;DHT22;19814;48.224;11.422;2023-03-31T14:30:01;13.90;91.40
33476;DHT22;19814;48.224;11.422;2023-03-31T14:32:37;14.00;91.80
33476;DHT22;19814;48.224;11.422;2023-03-31T14:37:51;13.70;92.00
33476;DHT22;19814;48.224;11.422;2023-03-31T14:40:18;13.40;92.80
33476;DHT22;19814;48.224;11.422;2023-03-31T14:42:45;13.30;95.00
33476;DHT22;19814;48.224;11.422;2023-03-31T14:45:34;13.00;96.60
33476;DHT22;19814;48.224;11.422;2023-03-31T14:48:10;12.50;97.50
33476;DHT22;19814;48.224;11.422;2023-03-31T14:50:41;11.90;97.30
33476;DHT22;19814;48.224;11.422;2023-03-31T14:53:14;11.50;99.50
33476;DHT22;19814;48.224;11.422;2023-03-31T14:55:40;11.20;99.90
33476;DHT22;19814;48.224;11.422;2023-03-31T14:58:11;10.90;99.20
33476;DHT22;19814;48.224;11.422;2023-03-31T15:00:38;10.80;99.90
33476;DHT22;19814;48.224;11.422;2023-03-31T15:03:07;10.80;99.90
33476;DHT22;19814;48.224;11.422;2023-03-31T15:05:36;10.70;99.90
33476;DHT22;19814;48.224;11.422;2023-03-31T15:08:07;11.00;99.90
33476;DHT22;19814;48.224;11.422;2023-03-31T15:10:39;11.50;99.90
33476;DHT22;19814;48.224;11.422;2023-03-31T15:13:08;11.90;99.90
33476;DHT22;19814;48.224;11.422;2023-03-31T15:15:34;12.10;99.90
33476;DHT22;19814;48.224;11.422;2023-03-31T15:18:00;12.30;99.80
33476;DHT22;19814;48.224;11.422;2023-03-31T15:20:34;12.40;99.90
33476;DHT22;19814;48.224;11.422;2023-03-31T15:23:03;12.60;99.90
33476;DHT22;19814;48.224;11.422;2023-03-31T15:25:33;12.70;97.60
33476;DHT22;19814;48.224;11.422;2023-03-31T15:28:03;12.60;98.50
33476;DHT22;19814;48.224;11.422;2023-03-31T15:30:30;12.70;97.50
33476;DHT22;19814;48.224;11.422;2023-03-31T15:32:56;12.60;97.90
33476;DHT22;19814;48.224;11.422;2023-03-31T15:35:27;12.70;98.10
33476;DHT22;19814;48.224;11.422;2023-03-31T15:37:56;12.80;97.80
33476;DHT22;19814;48.224;11.422;2023-03-31T15:40:24;12.80;96.30
33476;DHT22;19814;48.224;11.422;2023-03-31T15:43:28;12.70;95.70
33476;DHT22;19814;48.224;11.422;2023-03-31T15:45:56;12.60;96.10
33476;DHT22;19814;48.224;11.422;2023-03-31T15:51:46;12.50;96.00
33476;DHT22;19814;48.224;11.422;2023-03-31T15:53:48;12.50;95.40
33476;DHT22;19814;48.224;11.422;2023-03-31T15:59:01;12.40;94.60
33476;DHT22;19814;48.224;11.422;2023-03-31T16:01:42;12.40;96.00
33476;DHT22;19814;48.224;11.422;2023-03-31T16:04:09;12.30;96.60
33476;DHT22;19814;48.224;11.422;2023-03-31T16:09:43;12.40;95.80
33476;DHT22;19814;48.224;11.422;2023-03-31T16:12:22;12.40;96.50
33476;DHT22;19814;48.224;11.422;2023-03-31T16:17:31;12.40;96.60
33476;DHT22;19814;48.224;11.422;2023-03-31T16:20:03;12.40;96.20
33476;DHT22;19814;48.224;11.422;2023-03-31T16:22:36;12.40;96.50
33476;DHT22;19814;48.224;11.422;2023-03-31T16:25:09;12.40;96.10
33476;DHT22;19814;48.224;11.422;2023-03-31T16:27:40;12.30;96.50
33476;DHT22;19814;48.224;11.422;2023-03-31T16:30:12;12.20;96.30
33476;DHT22;19814;48.224;11.422;2023-03-31T16:33:07;12.20;96.40
33476;DHT22;19814;48.224;11.422;2023-03-31T16:38:02;11.90;96.60
33476;DHT22;19814;48.224;11.422;2023-03-31T16:40:38;11.90;96.40
33476;DHT22;19814;48.224;11.422;2023-03-31T16:43:22;11.90;96.90
33476;DHT22;19814;48.224;11.422;2023-03-31T16:45:50;11.80;97.40
33476;DHT22;19814;48.224;11.422;2023-03-31T16:48:18;11.70;97.40
33476;DHT22;19814;48.224;11.422;2023-03-31T16:50:48;11.60;97.70
33476;DHT22;19814;48.224;11.422;2023-03-31T16:53:18;11.40;98.30
33476;DHT22;19814;48.224;11.422;2023-03-31T16:55:46;11.10;98.40
33476;DHT22;19814;48.224;11.422;2023-03-31T16:58:12;10.60;99.90
33476;DHT22;19814;48.224;11.422;2023-03-31T17:00:37;10.10;99.90
33476;DHT22;19814;48.224;11.422;2023-03-31T17:03:05;9.80;99.90
33476;DHT22;19814;48.224;11.422;2023-03-31T17:05:39;9.50;99.90
33476;DHT22;19814;48.224;11.422;2023-03-31T17:08:06;9.30;99.90
33476;DHT22;19814;48.224;11.422;2023-03-31T17:10:33;9.30;99.90
33476;DHT22;19814;48.224;11.422;2023-03-31T17:12:58;9.30;99.90
33476;DHT22;19814;48.224;11.422;2023-03-31T17:15:24;9.30;99.90
33476;DHT22;19814;48.224;11.422;2023-03-31T17:17:50;9.30;99.90
33476;DHT22;19814;48.224;11.422;2023-03-31T17:20:15;9.30;99.90
33476;DHT22;19814;48.224;11.422;2023-03-31T17:22:41;9.40;99.90
33476;DHT22;19814;48.224;11.422;2023-03-31T17:25:07;9.40;99.90
33476;DHT22;19814;48.224;11.422;2023-03-31T17:27:33;9.30;99.90
33476;DHT22;19814;48.224;11.422;2023-03-31T17:29:59;9.30;99.90
33476;DHT22;19814;48.224;11.422;2023-03-31T17:32:25;9.20;99.90
33476;DHT22;19814;48.224;11.422;2023-03-31T17:34:51;9.20;99.90
33476;DHT22;19814;48.224;11.422;2023-03-31T17:37:17;9.20;99.90
33476;DHT22;19814;48.224;11.422;2023-03-31T17:39:43;9.10;99.90
33476;DHT22;19814;48.224;11.422;2023-03-31T17:42:09;9.10;99.90
33476;DHT22;19814;48.224;11.422;2023-03-31T17:44:36;9.10;99.90
33476;DHT22;19814;48.224;11.422;2023-03-31T17:47:01;9.00;99.90
33476;DHT22;19814;48.224;11.422;2023-03-31T17:49:27;9.10;99.90
33476;DHT22;19814;48.224;11.422;2023-03-31T17:51:53;9.10;99.90
33476;DHT22;19814;48.224;11.422;2023-03-31T17:54:19;9.10;99.90
33476;DHT22;19814;48.224;11.422;2023-03-31T17:56:45;9.10;99.90
33476;DHT22;19814;48.224;11.422;2023-03-31T17:59:14;9.10;99.90
33476;DHT22;19814;48.224;11.422;2023-03-31T18:01:40;9.00;99.90
33476;DHT22;19814;48.224;11.422;2023-03-31T18:04:06;9.00;99.90
33476;DHT22;19814;48.224;11.422;2023-03-31T18:06:32;9.00;99.90
33476;DHT22;19814;48.224;11.422;2023-03-31T18:08:57;9.00;99.90
33476;DHT22;19814;48.224;11.422;2023-03-31T18:11:23;9.00;99.90
33476;DHT22;19814;48.224;11.422;2023-03-31T18:13:48;9.00;99.90
33476;DHT22;19814;48.224;11.422;2023-03-31T18:16:15;8.90;99.90
33476;DHT22;19814;48.224;11.422;2023-03-31T18:18:41;8.90;99.90
33476;DHT22;19814;48.224;11.422;2023-03-31T18:21:09;8.90;99.90
33476;DHT22;19814;48.224;11.422;2023-03-31T18:23:36;8.90;99.90
33476;DHT22;19814;48.224;11.422;2023-03-31T18:26:05;8.80;99.90
33476;DHT22;19814;48.224;11.422;2023-03-31T18:28:31;8.70;99.90
33476;DHT22;19814;48.224;11.422;2023-03-31T18:30:57;8.70;99.90
33476;DHT22;19814;48.224;11.422;2023-03-31T18:33:26;8.70;99.90
33476;DHT22;19814;48.224;11.422;2023-03-31T18:35:51;8.70;99.90